Aérodrome :
LOGIN :

S'inscrire | Disclaimer

   EN    FR    IT 

 










Légende :    VFR   VFR Marginal   IFR   IFR Intensif   IFR Très Intensif
Visi : 
Plafond : 
>= 8 km
>= 3000ft
5 à 8 km
1000 à 3000 ft
1500m à 5 km
500 à 1000 ft
800 à 1500m
200 à 500 ft
< 800m
< 200 ft
Symboles :   Orages  Brouillard  Fortes neiges  Fortes précipitations  Vent > 20 kt
SIGMETs :   Divers  Orages  Givrage  Turbulence  Onde Orograph.  Cendres Volcan.







- Altitude de l'aérodrome : 129 ft
- Code IATA : ZCN


ETHC - Celle

DERNIER METAR :
  • 240820Z 23015KT 9999 BKN021 BKN030 12/06 Q1014 WHT BLU TEMPO WHT

METARs EXPIRÉS :
  • 240720Z 23013KT 9999 FEW022 BKN036 11/06 Q1014 BLU BLU TEMPO WHT
  • 240620Z 23014KT 9999 BKN052 BKN130 11/05 Q1014 BLU BLU TEMPO WHT

TAF TAF ETHC
Valide du 24 à 08h jusqu'au 24 à 17h UTC


240720Z 2408/2417 24013KT 9999 NSW SCT020 BKN030
TEMPO 2408/2417 25015G25KT 8000 -RA BKN015
Pas de NOTAMs connus pour ce terrain.



MET'MAP, la Météo Aéronautique d'un coup d'oeil ! - Copyright ORBIFLY Décembre 2007 - Disclaimer

ORBIFLY MET'MAP TEAM :

Programmation & Développement : Alexandra Zaïnal
Conception & Développement : Baudouin d'Aumeries
Co-Programmation & Développement : Marc-Olivier Méhu
Soutien technique & logistique : Manuel Goepfert

Contact : metmap@orbifly.com




SOURCES & CREDITS :

   NOAA